Frigiliana, Spain

8:58 AM CEST on July 21, 2018 (GMT +0200)
FRIGILIANA PUEBLO | | Change Station

Elev 1056 ft 36.79 °N, 3.90 °W | Updated 3 minutes ago

Clear
Clear
80.4 °F
Feels Like 80 °F
N
5
Wind Variable Wind from North
Gusts 5.0 mph

Today
High -- | Low -- °F
--% Chance of Precip.
Yesterday
High -- | Low -- °F
Precip. -- in
Pressure 30.04 in
Visibility -9999.0 miles
Clouds
Heat Index 80 °F
Dew Point 48 °F
Humidity 32%
Rainfall 0.00 in
Snow Depth Not available.
7:12 AM 9:31 PM
Waxing Gibbous, 65% visible
METAR LEGR 210630Z 31001KT CAVOK 18/11 Q1017
Pressure 30.04 in
Visibility -9999.0 miles
Clouds
Heat Index 80 °F
Dew Point 48 °F
Humidity 32%
Rainfall 0.00 in
Snow Depth Not available.
7:12 AM 9:31 PM
Waxing Gibbous, 65% visible
METAR LEGR 210630Z 31001KT CAVOK 18/11 Q1017

Get Severe Weather Alerts

Thanks for signing up!

Be on the lookout for a verification email in your inbox.

You'll start receiving the daily forecast at 6 AM.

×

10-Day Weather Forecast

×

Almanac

Astronomy

Jul. 21, 2018 Rise Set
Actual Time
Civil Twilight
Nautical Twilight
Astronomical Twilight
Moon
Length of Visible Light
Length of Day
Tomorrow will be .
, % of the Moon is Illuminated

Today's Extremes

Country Highs Country Lows

Community

WunderPhotos

Category 6

Welcome to Category 6. This is the collective home for Weather Underground's featured writeups by Dr. Jeff Masters (right), Bob Henson (left), Chris Burt, and other regular contributors.

Nearby

Air Quality

  Air Quality AQ Index Pollutant
Not available.

Snow Depth

Station Depth Elevation

Earthquake Activity

City Distance Mag. Time & Date
Minimum magnitude displayed is 2.5.

Coastal Water Temperatures

Place Temperature

Stations

Nearby Weather Stations

Station Location Temp. Windchill Dew Point Humidity Wind Precip. Elev Updated Type